createdAt,value
2023-02-07T00:01:11.479Z,22.65
2023-02-07T00:03:38.084Z,22.70
2023-02-07T00:06:06.779Z,21.70
2023-02-07T00:08:33.143Z,22.25
2023-02-07T00:11:04.589Z,20.40
2023-02-07T00:13:30.955Z,20.73
2023-02-07T00:15:57.331Z,21.50
2023-02-07T00:18:23.694Z,21.55
2023-02-07T00:21:01.273Z,21.90
2023-02-07T00:23:27.995Z,21.38
2023-02-07T00:25:54.407Z,21.48
2023-02-07T00:28:20.903Z,23.33
2023-02-07T00:30:47.498Z,26.40
2023-02-07T00:33:14.463Z,24.58
2023-02-07T00:35:40.976Z,24.75
2023-02-07T00:38:07.417Z,23.73
2023-02-07T00:40:33.828Z,24.10
2023-02-07T00:43:00.242Z,24.55
2023-02-07T00:45:26.638Z,23.58
2023-02-07T00:47:53.022Z,25.45
2023-02-07T00:50:19.497Z,25.15
2023-02-07T00:52:45.862Z,23.77
2023-02-07T00:55:12.251Z,24.15
2023-02-07T00:57:38.609Z,24.15
2023-02-07T01:00:05.442Z,25.13
2023-02-07T01:02:31.839Z,22.65
2023-02-07T01:05:00.083Z,21.15
2023-02-07T01:07:26.515Z,23.65
2023-02-07T01:09:52.887Z,22.33
2023-02-07T01:12:19.283Z,24.25
2023-02-07T01:14:45.669Z,23.67
2023-02-07T01:17:12.054Z,24.10
2023-02-07T01:19:38.418Z,23.40
2023-02-07T01:22:05.873Z,24.27
2023-02-07T01:24:32.259Z,22.40
2023-02-07T01:26:58.645Z,23.60
2023-02-07T01:29:25.042Z,23.10
2023-02-07T01:31:51.671Z,23.88
2023-02-07T01:34:18.113Z,21.98
2023-02-07T01:36:44.526Z,23.10
2023-02-07T01:39:11.229Z,22.27
2023-02-07T01:41:38.103Z,21.25
2023-02-07T01:44:21.660Z,22.40
2023-02-07T01:46:48.683Z,26.27
2023-02-07T01:49:18.685Z,24.10
2023-02-07T01:51:48.637Z,24.10
2023-02-07T01:54:16.134Z,22.90
2023-02-07T01:56:48.943Z,27.95
2023-02-07T01:59:15.520Z,26.48
2023-02-07T02:01:42.290Z,27.20
2023-02-07T02:04:08.688Z,26.33
2023-02-07T02:06:35.259Z,20.92
2023-02-07T02:09:07.308Z,19.35
2023-02-07T02:12:14.772Z,20.52
2023-02-07T02:14:47.196Z,20.65
2023-02-07T02:17:22.781Z,20.40
2023-02-07T02:19:55.216Z,19.50
2023-02-07T02:22:28.506Z,19.95
2023-02-07T02:25:03.850Z,20.88
2023-02-07T02:27:43.728Z,19.98
2023-02-07T02:30:37.986Z,21.45
2023-02-07T02:33:14.600Z,21.50
2023-02-07T02:36:10.319Z,21.13
2023-02-07T02:38:52.113Z,20.98
2023-02-07T02:41:24.801Z,20.77
2023-02-07T02:44:01.627Z,19.15
2023-02-07T02:46:31.690Z,17.92
2023-02-07T02:48:58.445Z,18.58
2023-02-07T02:51:24.814Z,19.45
2023-02-07T02:53:55.493Z,19.27
2023-02-07T02:56:55.887Z,18.55
2023-02-07T02:59:28.278Z,19.67
2023-02-07T03:02:17.902Z,20.20
2023-02-07T03:05:16.378Z,17.88
2023-02-07T03:07:52.761Z,17.90
2023-02-07T03:10:40.583Z,20.77
2023-02-07T03:13:27.075Z,18.48
2023-02-07T03:16:04.178Z,19.77
2023-02-07T03:19:13.409Z,19.17
2023-02-07T03:21:45.916Z,23.67
2023-02-07T03:24:20.074Z,25.98
2023-02-07T03:26:47.069Z,29.25
2023-02-07T03:29:15.131Z,23.70
2023-02-07T03:31:43.688Z,24.73
2023-02-07T03:34:17.816Z,25.05
2023-02-07T03:37:33.765Z,22.08
2023-02-07T03:40:00.263Z,22.42
2023-02-07T03:42:33.180Z,22.58
2023-02-07T03:45:01.111Z,19.80
2023-02-07T03:47:27.772Z,20.17
2023-02-07T03:49:54.655Z,19.23
2023-02-07T03:52:21.058Z,18.42
2023-02-07T03:54:47.450Z,20.98
2023-02-07T03:57:13.939Z,20.90
2023-02-07T03:59:40.382Z,20.88
2023-02-07T04:02:06.823Z,20.27
2023-02-07T04:04:33.222Z,20.30
2023-02-07T04:06:59.601Z,21.30
2023-02-07T04:09:26.141Z,20.63
2023-02-07T04:11:52.588Z,20.05
2023-02-07T04:14:22.352Z,19.55
2023-02-07T04:16:49.288Z,19.30
2023-02-07T04:19:16.333Z,19.73
2023-02-07T04:21:42.852Z,19.10
2023-02-07T04:24:09.534Z,20.35
2023-02-07T04:26:35.966Z,21.13
2023-02-07T04:29:02.358Z,22.17
2023-02-07T04:31:28.819Z,22.40
2023-02-07T04:33:55.248Z,26.77
2023-02-07T04:36:22.645Z,24.95
2023-02-07T04:38:49.177Z,20.83
2023-02-07T04:41:15.616Z,21.48
2023-02-07T04:43:41.996Z,21.58
2023-02-07T04:46:08.871Z,19.10
2023-02-07T04:48:37.648Z,19.95
2023-02-07T04:51:05.131Z,18.58
2023-02-07T04:53:31.524Z,19.90
2023-02-07T04:55:57.948Z,18.25
2023-02-07T04:58:24.549Z,20.75
2023-02-07T05:00:52.872Z,19.85
2023-02-07T05:03:19.352Z,18.85
2023-02-07T05:05:45.906Z,20.02
2023-02-07T05:08:13.034Z,19.55
2023-02-07T05:10:39.911Z,18.35
2023-02-07T05:13:07.220Z,20.85
2023-02-07T05:15:33.659Z,20.45
2023-02-07T05:18:00.072Z,20.90
2023-02-07T05:20:26.997Z,21.30
2023-02-07T05:22:53.440Z,22.77
2023-02-07T05:25:19.811Z,22.98
2023-02-07T05:27:46.296Z,21.42
2023-02-07T05:30:13.248Z,22.08
2023-02-07T05:32:58.413Z,25.73
2023-02-07T05:35:24.806Z,27.90
2023-02-07T05:37:51.200Z,27.10
2023-02-07T05:40:17.615Z,24.50
2023-02-07T05:42:43.994Z,27.65
2023-02-07T05:45:11.393Z,27.17
2023-02-07T05:47:37.923Z,27.27
2023-02-07T05:50:04.633Z,27.13
2023-02-07T05:52:31.037Z,27.05
2023-02-07T05:54:57.488Z,26.38
2023-02-07T05:57:23.968Z,28.35
2023-02-07T05:59:50.353Z,23.50
2023-02-07T06:02:17.001Z,25.88
2023-02-07T06:04:43.405Z,23.75
2023-02-07T06:07:09.882Z,25.27
2023-02-07T06:09:36.253Z,24.50
2023-02-07T06:12:05.175Z,25.17
2023-02-07T06:14:31.684Z,26.80
2023-02-07T06:16:58.068Z,24.17
2023-02-07T06:19:24.441Z,26.25
2023-02-07T06:21:50.836Z,31.50
2023-02-07T06:24:17.296Z,29.15
2023-02-07T06:26:44.370Z,26.55
2023-02-07T06:29:10.808Z,23.80
2023-02-07T06:31:37.286Z,25.73
2023-02-07T06:34:03.997Z,23.75
2023-02-07T06:36:30.401Z,24.90
2023-02-07T06:38:57.355Z,23.80
2023-02-07T06:41:23.758Z,22.75
2023-02-07T06:43:50.123Z,26.15
2023-02-07T06:46:16.538Z,25.00
2023-02-07T06:48:42.979Z,25.45
2023-02-07T06:51:09.383Z,24.35
2023-02-07T06:53:35.823Z,24.63
2023-02-07T06:56:02.578Z,23.70
2023-02-07T06:58:29.027Z,24.23
2023-02-07T07:00:55.461Z,23.98
2023-02-07T07:03:26.906Z,24.42
2023-02-07T07:05:53.318Z,19.27
2023-02-07T07:08:19.793Z,30.20
2023-02-07T07:10:46.188Z,31.02
2023-02-07T07:13:15.485Z,30.40
2023-02-07T07:15:41.924Z,29.33
2023-02-07T07:18:08.318Z,31.48
2023-02-07T07:20:34.770Z,29.08
2023-02-07T07:23:01.163Z,25.98
2023-02-07T07:25:27.578Z,25.70
2023-02-07T07:27:54.054Z,26.48
2023-02-07T07:30:21.429Z,25.90
2023-02-07T07:32:48.926Z,25.17
2023-02-07T07:35:15.505Z,25.77
2023-02-07T07:37:42.130Z,25.77
2023-02-07T07:40:09.369Z,28.15
2023-02-07T07:42:36.826Z,27.02
2023-02-07T07:45:03.674Z,26.50
2023-02-07T07:47:30.079Z,26.90
2023-02-07T07:49:56.544Z,26.08
2023-02-07T07:52:22.931Z,26.85
2023-02-07T07:54:49.365Z,26.50
2023-02-07T07:57:15.781Z,24.55
2023-02-07T07:59:42.152Z,26.35
2023-02-07T08:02:15.057Z,26.92
2023-02-07T08:04:41.611Z,25.63
2023-02-07T08:07:08.094Z,27.20
2023-02-07T08:09:34.480Z,27.30
2023-02-07T08:12:00.868Z,28.88
2023-02-07T08:14:27.244Z,28.00
2023-02-07T08:16:53.648Z,29.10
2023-02-07T08:19:20.053Z,30.25
2023-02-07T08:21:46.524Z,31.17
2023-02-07T08:24:12.928Z,30.58
2023-02-07T08:26:39.351Z,31.83
2023-02-07T08:29:05.785Z,29.17
2023-02-07T08:31:32.325Z,28.88
2023-02-07T08:33:58.753Z,28.83
2023-02-07T08:36:25.213Z,29.02
2023-02-07T08:38:51.913Z,27.80
2023-02-07T08:41:18.332Z,27.75
2023-02-07T08:43:44.725Z,29.05
2023-02-07T08:46:11.236Z,28.83
2023-02-07T08:48:37.695Z,28.33
2023-02-07T08:51:06.193Z,28.05
2023-02-07T08:53:32.738Z,28.45
2023-02-07T08:55:59.173Z,28.02
2023-02-07T08:58:25.695Z,29.13
2023-02-07T09:00:52.247Z,27.58
2023-02-07T09:03:18.645Z,28.77
2023-02-07T09:05:45.139Z,27.48
2023-02-07T09:08:11.533Z,27.63
2023-02-07T09:10:38.554Z,28.25
2023-02-07T09:13:05.189Z,28.15
2023-02-07T09:15:31.589Z,28.75
2023-02-07T09:17:57.986Z,28.85
2023-02-07T09:20:24.446Z,27.65
2023-02-07T09:23:09.481Z,27.75
2023-02-07T09:25:38.120Z,26.50
2023-02-07T09:28:04.696Z,27.27
2023-02-07T09:30:31.174Z,25.83
2023-02-07T09:32:58.270Z,25.73
2023-02-07T09:35:24.927Z,29.08
2023-02-07T09:37:54.736Z,23.50
2023-02-07T09:40:22.173Z,25.80
2023-02-07T09:42:57.308Z,26.05
2023-02-07T09:45:27.296Z,24.30
2023-02-07T09:47:59.883Z,24.10
2023-02-07T09:50:32.790Z,22.17
2023-02-07T09:53:04.501Z,23.05
2023-02-07T09:55:40.194Z,21.95
2023-02-07T09:58:15.055Z,21.83
2023-02-07T10:00:42.508Z,20.55
2023-02-07T10:03:18.810Z,21.27
2023-02-07T10:06:01.483Z,20.80
2023-02-07T10:08:39.753Z,19.65
2023-02-07T10:11:10.499Z,19.83
2023-02-07T10:14:07.248Z,19.20
2023-02-07T10:16:54.876Z,19.45
2023-02-07T10:19:36.468Z,17.88
2023-02-07T10:22:08.784Z,13.50
2023-02-07T10:27:13.450Z,18.48
2023-02-07T10:29:57.060Z,16.83
2023-02-07T10:32:26.336Z,15.65
2023-02-07T10:34:56.217Z,17.45
2023-02-07T10:37:25.802Z,15.88
2023-02-07T10:40:29.056Z,15.45
2023-02-07T10:43:10.576Z,13.32
2023-02-07T10:45:39.676Z,12.38
2023-02-07T10:48:15.666Z,10.65
2023-02-07T10:50:42.145Z,10.73
2023-02-07T10:53:08.626Z,9.48
2023-02-07T10:55:46.321Z,9.10
2023-02-07T10:58:23.094Z,7.43
2023-02-07T11:00:51.939Z,6.88
2023-02-07T11:03:23.316Z,6.88
2023-02-07T11:05:55.367Z,5.18
2023-02-07T11:08:24.578Z,5.30
2023-02-07T11:10:53.376Z,6.20
2023-02-07T11:13:23.467Z,4.70
2023-02-07T11:16:04.601Z,4.50
2023-02-07T11:18:44.758Z,4.90
2023-02-07T11:21:24.829Z,3.72
2023-02-07T11:23:52.259Z,4.97
2023-02-07T11:26:20.509Z,9.63
2023-02-07T11:28:47.372Z,10.63
2023-02-07T11:31:17.967Z,6.30
2023-02-07T11:33:44.463Z,6.70
2023-02-07T11:36:12.370Z,5.45
2023-02-07T11:38:50.361Z,5.80
2023-02-07T11:41:19.057Z,7.03
2023-02-07T11:43:55.570Z,6.57
2023-02-07T11:46:24.173Z,6.45
2023-02-07T11:48:53.854Z,5.80
2023-02-07T11:51:20.243Z,6.15
2023-02-07T11:53:56.018Z,5.75
2023-02-07T11:56:28.344Z,5.97
2023-02-07T11:58:55.275Z,6.22
2023-02-07T12:01:28.823Z,6.00
2023-02-07T12:04:00.629Z,5.88
2023-02-07T12:06:43.777Z,5.30
2023-02-07T12:09:22.386Z,5.60
2023-02-07T12:11:49.376Z,5.53
2023-02-07T12:14:32.229Z,5.35
2023-02-07T12:17:00.102Z,4.53
2023-02-07T12:19:33.955Z,6.10
2023-02-07T12:22:08.163Z,5.70
2023-02-07T12:24:42.817Z,5.93
2023-02-07T12:27:09.115Z,4.88
2023-02-07T12:30:04.086Z,5.20
2023-02-07T12:32:42.782Z,6.43
2023-02-07T12:35:23.197Z,5.85
2023-02-07T12:38:12.112Z,5.97
2023-02-07T12:40:54.172Z,5.57
2023-02-07T12:43:22.660Z,7.20
2023-02-07T12:46:01.140Z,6.90
2023-02-07T12:48:52.089Z,6.20
2023-02-07T12:51:27.733Z,6.35
2023-02-07T12:54:08.380Z,6.32
2023-02-07T12:56:50.193Z,6.50
2023-02-07T12:59:40.462Z,5.50
2023-02-07T13:02:24.889Z,8.27
2023-02-07T13:05:10.406Z,9.25
2023-02-07T13:07:51.901Z,7.68
2023-02-07T13:10:23.190Z,6.57
2023-02-07T13:13:06.144Z,7.30
2023-02-07T13:15:47.699Z,6.45
2023-02-07T13:18:38.992Z,6.25
2023-02-07T13:21:31.162Z,6.65
2023-02-07T13:24:01.380Z,6.72
2023-02-07T13:26:28.398Z,6.25
2023-02-07T13:28:57.110Z,6.63
2023-02-07T13:31:35.789Z,6.72
2023-02-07T13:34:03.396Z,6.28
2023-02-07T13:36:40.970Z,6.30
2023-02-07T13:39:28.656Z,6.38
2023-02-07T13:42:10.822Z,5.60
2023-02-07T13:44:45.812Z,5.60
2023-02-07T13:47:22.281Z,5.60
2023-02-07T13:50:12.353Z,5.50
2023-02-07T13:52:44.587Z,5.60
2023-02-07T13:58:02.847Z,5.30
2023-02-07T14:00:57.289Z,5.55
2023-02-07T14:03:28.884Z,5.75
2023-02-07T14:06:14.993Z,6.78
2023-02-07T14:08:42.771Z,6.22
2023-02-07T14:11:33.957Z,6.72
2023-02-07T14:14:27.476Z,6.35
2023-02-07T14:16:53.785Z,5.55
2023-02-07T14:19:45.456Z,5.63
2023-02-07T14:22:32.436Z,5.10
2023-02-07T14:24:58.874Z,4.32
2023-02-07T14:27:39.308Z,4.63
2023-02-07T14:30:11.810Z,4.10
2023-02-07T14:33:13.630Z,4.00
2023-02-07T14:36:25.328Z,4.55
2023-02-07T14:39:29.823Z,4.60
2023-02-07T14:42:11.334Z,4.65
2023-02-07T14:44:40.026Z,4.63
2023-02-07T14:47:08.092Z,4.82
2023-02-07T14:49:46.644Z,4.70
2023-02-07T14:52:15.919Z,4.68
2023-02-07T14:54:46.448Z,5.00
2023-02-07T14:57:41.273Z,5.10
2023-02-07T15:00:07.523Z,4.75
2023-02-07T15:02:38.491Z,5.22
2023-02-07T15:05:13.950Z,4.80
2023-02-07T15:07:43.375Z,5.07
2023-02-07T15:10:16.231Z,5.20
2023-02-07T15:12:45.779Z,5.93
2023-02-07T15:15:20.951Z,6.07
2023-02-07T15:17:48.401Z,6.40
2023-02-07T15:20:17.434Z,6.80
2023-02-07T15:22:47.763Z,5.20
2023-02-07T15:25:14.609Z,5.85
2023-02-07T15:27:40.988Z,8.30
2023-02-07T15:30:11.526Z,11.10
2023-02-07T15:32:42.554Z,9.57
2023-02-07T15:35:14.022Z,9.48
2023-02-07T15:37:40.401Z,6.68
2023-02-07T15:40:07.227Z,8.13
2023-02-07T15:42:33.703Z,7.65
2023-02-07T15:45:00.114Z,7.20
2023-02-07T15:47:29.603Z,7.38
2023-02-07T15:50:03.096Z,6.50
2023-02-07T15:52:41.315Z,9.65
2023-02-07T15:55:36.280Z,7.80
2023-02-07T15:58:04.721Z,8.60
2023-02-07T16:00:37.125Z,6.95
2023-02-07T16:03:06.275Z,6.25
2023-02-07T16:05:38.599Z,9.95
2023-02-07T16:08:08.953Z,10.15
2023-02-07T16:10:38.268Z,13.55
2023-02-07T16:13:19.408Z,13.30
2023-02-07T16:15:58.542Z,14.07
2023-02-07T16:18:42.516Z,12.68
2023-02-07T16:21:14.783Z,15.40
2023-02-07T16:26:07.574Z,13.77
2023-02-07T16:28:34.053Z,12.85
2023-02-07T16:31:00.634Z,11.25
2023-02-07T16:33:27.042Z,11.30
2023-02-07T16:35:53.409Z,12.55
2023-02-07T16:38:19.813Z,15.32
2023-02-07T16:40:46.236Z,13.75
2023-02-07T16:43:30.728Z,12.60
2023-02-07T16:45:57.130Z,12.73
2023-02-07T16:48:23.809Z,11.20
2023-02-07T16:50:50.235Z,12.57
2023-02-07T16:53:16.632Z,13.43
2023-02-07T16:55:43.039Z,14.00
2023-02-07T16:58:18.708Z,13.88
2023-02-07T17:00:45.097Z,15.30
2023-02-07T17:03:15.306Z,14.68
2023-02-07T17:05:41.766Z,14.10
2023-02-07T17:08:13.628Z,14.15
2023-02-07T17:10:40.524Z,17.17
2023-02-07T17:13:07.304Z,14.07
2023-02-07T17:15:33.846Z,13.48
2023-02-07T17:18:00.214Z,14.45
2023-02-07T17:20:30.361Z,13.13
2023-02-07T17:22:56.817Z,13.15
2023-02-07T17:25:25.217Z,13.50
2023-02-07T17:27:51.806Z,14.80
2023-02-07T17:30:23.713Z,15.65
2023-02-07T17:32:50.232Z,16.33
2023-02-07T17:35:16.745Z,15.07
2023-02-07T17:37:43.273Z,15.02
2023-02-07T17:40:35.234Z,14.30
2023-02-07T17:43:02.209Z,13.95
2023-02-07T17:45:29.454Z,15.25
2023-02-07T17:47:59.279Z,14.20
2023-02-07T17:50:29.424Z,13.68
2023-02-07T17:52:56.876Z,14.00
2023-02-07T17:55:23.291Z,14.05
2023-02-07T17:57:49.850Z,14.00
2023-02-07T18:00:21.772Z,14.63
2023-02-07T18:02:48.889Z,14.93
2023-02-07T18:05:16.452Z,14.77
2023-02-07T18:07:44.215Z,14.10
2023-02-07T18:10:13.618Z,17.55
2023-02-07T18:12:40.032Z,23.70
2023-02-07T18:15:08.879Z,27.27
2023-02-07T18:17:36.738Z,20.20
2023-02-07T18:20:05.598Z,17.42
2023-02-07T18:22:32.031Z,19.25
2023-02-07T18:24:58.453Z,18.73
2023-02-07T18:27:25.031Z,19.17
2023-02-07T18:29:51.404Z,20.35
2023-02-07T18:32:17.791Z,18.80
2023-02-07T18:34:45.047Z,19.75
2023-02-07T18:37:11.425Z,20.20
2023-02-07T18:39:37.873Z,19.25
2023-02-07T18:42:04.262Z,17.80
2023-02-07T18:44:30.697Z,20.30
2023-02-07T18:46:57.089Z,19.40
2023-02-07T18:49:23.490Z,19.25
2023-02-07T18:51:50.033Z,16.42
2023-02-07T18:54:16.456Z,16.30
2023-02-07T18:56:47.374Z,15.23
2023-02-07T18:59:17.172Z,16.13
2023-02-07T19:01:47.951Z,15.38
2023-02-07T19:04:15.649Z,16.75
2023-02-07T19:06:42.350Z,16.88
2023-02-07T19:09:09.156Z,18.08
2023-02-07T19:11:39.623Z,23.27
2023-02-07T19:14:15.355Z,27.65
2023-02-07T19:16:42.321Z,28.90
2023-02-07T19:19:10.573Z,20.83
2023-02-07T19:21:37.089Z,18.60
2023-02-07T19:24:06.778Z,18.63
2023-02-07T19:26:33.281Z,18.55
2023-02-07T19:29:00.563Z,19.00
2023-02-07T19:31:29.210Z,19.08
2023-02-07T19:33:56.645Z,18.48
2023-02-07T19:36:25.577Z,19.27
2023-02-07T19:38:54.118Z,21.48
2023-02-07T19:41:22.041Z,20.27
2023-02-07T19:43:48.763Z,21.02
2023-02-07T19:46:15.474Z,22.38
2023-02-07T19:48:42.178Z,22.33
2023-02-07T19:51:19.936Z,22.40
2023-02-07T19:53:48.050Z,21.88
2023-02-07T19:56:14.471Z,21.33
2023-02-07T19:58:45.289Z,21.58
2023-02-07T20:01:11.985Z,20.73
2023-02-07T20:03:39.377Z,18.23
2023-02-07T20:06:10.382Z,17.70
2023-02-07T20:08:38.742Z,16.65
2023-02-07T20:11:08.579Z,17.75
2023-02-07T20:13:36.438Z,16.88
2023-02-07T20:16:12.633Z,15.80
2023-02-07T20:18:39.202Z,16.63
2023-02-07T20:21:11.707Z,17.85
2023-02-07T20:23:46.708Z,17.88
2023-02-07T20:26:17.092Z,18.58
2023-02-07T20:28:43.527Z,17.05
2023-02-07T20:31:12.730Z,16.83
2023-02-07T20:33:40.291Z,17.25
2023-02-07T20:36:07.858Z,19.45
2023-02-07T20:38:34.593Z,20.23
2023-02-07T20:41:15.975Z,19.65
2023-02-07T20:43:42.910Z,23.70
2023-02-07T20:46:12.478Z,28.48
2023-02-07T20:48:39.844Z,32.42
2023-02-07T20:51:10.303Z,29.52
2023-02-07T20:53:41.242Z,27.27
2023-02-07T20:56:17.149Z,31.27
2023-02-07T20:58:47.002Z,30.30
2023-02-07T21:01:16.040Z,28.92
2023-02-07T21:03:45.113Z,28.27
2023-02-07T21:06:12.989Z,23.40
2023-02-07T21:08:39.856Z,20.83
2023-02-07T21:11:07.825Z,21.63
2023-02-07T21:13:34.985Z,21.85
2023-02-07T21:16:03.826Z,23.35
2023-02-07T21:18:31.372Z,20.70
2023-02-07T21:20:57.935Z,21.30
2023-02-07T21:23:24.555Z,23.15
2023-02-07T21:25:50.997Z,24.83
2023-02-07T21:28:17.474Z,24.88
2023-02-07T21:30:43.981Z,27.75
2023-02-07T21:33:10.409Z,29.23
2023-02-07T21:35:36.787Z,30.77
2023-02-07T21:38:03.272Z,29.63
2023-02-07T21:40:29.736Z,26.23
2023-02-07T21:42:56.315Z,27.25
2023-02-07T21:45:22.717Z,27.83
2023-02-07T21:47:49.142Z,26.65
2023-02-07T21:50:15.552Z,25.33
2023-02-07T21:52:41.986Z,22.17
2023-02-07T21:55:08.438Z,22.38
2023-02-07T21:57:34.843Z,21.02
2023-02-07T22:00:01.215Z,20.77
2023-02-07T22:02:27.892Z,20.42
2023-02-07T22:04:54.312Z,21.60
2023-02-07T22:07:20.770Z,21.92
2023-02-07T22:09:50.164Z,23.73
2023-02-07T22:12:16.569Z,25.23
2023-02-07T22:14:42.943Z,26.15
2023-02-07T22:17:10.119Z,26.08
2023-02-07T22:19:36.603Z,26.77
2023-02-07T22:22:02.968Z,26.67
2023-02-07T22:24:31.635Z,29.20
2023-02-07T22:26:58.016Z,33.25
2023-02-07T22:29:24.387Z,35.53
2023-02-07T22:31:50.848Z,35.63
2023-02-07T22:34:17.395Z,36.45
2023-02-07T22:36:45.137Z,35.05
2023-02-07T22:39:13.274Z,34.53
2023-02-07T22:41:39.640Z,32.05
2023-02-07T22:44:06.068Z,28.73
2023-02-07T22:46:32.512Z,29.70
2023-02-07T22:48:59.061Z,30.05
2023-02-07T22:51:32.336Z,32.53
2023-02-07T22:54:01.526Z,31.02
2023-02-07T22:56:28.224Z,32.40
2023-02-07T22:58:55.215Z,29.92
2023-02-07T23:01:23.085Z,31.60
2023-02-07T23:03:50.347Z,32.25
2023-02-07T23:06:17.153Z,35.38
2023-02-07T23:08:43.608Z,38.08
2023-02-07T23:11:12.578Z,37.42
2023-02-07T23:13:40.773Z,40.08
2023-02-07T23:16:15.119Z,41.00
2023-02-07T23:18:41.741Z,38.30
2023-02-07T23:21:10.014Z,38.42
2023-02-07T23:23:37.088Z,39.90
2023-02-07T23:26:09.854Z,35.17
2023-02-07T23:28:37.307Z,31.77
2023-02-07T23:31:05.849Z,32.20
2023-02-07T23:33:32.659Z,30.95
2023-02-07T23:35:59.461Z,29.00
2023-02-07T23:38:26.111Z,27.80
2023-02-07T23:40:52.604Z,27.75
2023-02-07T23:43:19.015Z,28.17
2023-02-07T23:45:45.416Z,28.13
2023-02-07T23:48:11.895Z,27.58
2023-02-07T23:50:38.673Z,28.73
2023-02-07T23:53:05.478Z,29.65
2023-02-07T23:55:31.857Z,30.27
2023-02-07T23:57:58.264Z,29.63
